MV Causeway Supplier — ZR2426 — position and weather

sailwx.info

Track history (hours):
 
Tides and Currents Weather Stations Pressure Air Temp Water Temp Dewpoint Dewpoint Depression Visibility Wind Speed Wind Dir Waves Ship Positions

MV Causeway Supplier

Last reported at 2016-May-30 07:34 UTC. Time now 2016-May-30 16:23 UTC.
Position S 29°54' E 031°00'.

Length 22 m; draft 2.7 m.

Type: . MMSI: 601041200.

Date/timePositionNaut miles runAvg speedWind from/ knotsBaromVisibWave heightAir tempDewpointWater temp
2016-May-30 07:34S 29°54' E 031°00'2 2.0
2016-May-30 06:33S 29°52' E 031°01'6 5.6
2016-May-30 05:33S 29°51' E 031°07'3 2.9
2016-May-30 04:33S 29°52' E 031°10'8 7.5
2016-May-30 03:32S 29°52' E 031°02'2 0.1
2016-May-29 07:14S 29°54' E 031°00'1 1.9
2016-May-29 06:33S 29°53' E 031°00'6 5.6
2016-May-29 05:33S 29°52' E 031°07'2 1.7
2016-May-29 04:33S 29°52' E 031°09'3 2.7
2016-May-29 03:33S 29°52' E 031°05'4 4.0
2016-May-29 02:34S 29°52' E 031°01'2 2.0
2016-May-29 01:33S 29°54' E 031°00'0 0.0
2016-May-28 10:10S 29°54' E 031°00'2 3.2
2016-May-28 09:32S 29°52' E 031°01'4 4.0
2016-May-28 08:33S 29°52' E 031°05'6 6.2
2016-May-28 07:33S 29°51' E 031°12'1 0.5
2016-May-28 06:33S 29°52' E 031°13'1 0.9
2016-May-28 05:33S 29°53' E 031°13'8 8.1
2016-May-28 04:33S 29°52' E 031°04'3 2.8
2016-May-28 03:33S 29°52' E 031°01'0 0.0
2016-May-28 02:33S 29°52' E 031°01'0 0.0
2016-May-28 01:33S 29°52' E 031°01'2 2.0
2016-May-28 00:33S 29°54' E 031°00'0 0.0
2016-May-26 19:33S 29°54' E 031°00'4 4.0
2016-May-26 18:34S 29°52' E 031°04'4 4.2
2016-May-26 17:33S 29°52' E 031°09'1 0.8
2016-May-26 16:33S 29°51' E 031°09'0 0.4
2016-May-26 15:33S 29°51' E 031°10'5 5.0
2016-May-26 14:33S 29°52' E 031°04'3 2.6
2016-May-26 13:33S 29°52' E 031°01'1 1.0
2016-May-26 12:33S 29°53' E 031°00'1 1.1
2016-May-26 11:33S 29°54' E 031°00'0 0.0
2016-May-26 10:33S 29°54' E 031°00'0 0.0
2016-May-25 14:03S 29°54' E 031°00'1 1.7
2016-May-25 13:33S 29°53' E 031°00'1 1.3
2016-May-25 12:33S 29°52' E 031°01'7 6.9
2016-May-25 11:33S 29°49' E 031°08'1 0.9
2016-May-25 10:33S 29°50' E 031°08'4 4.4
2016-May-25 09:34S 29°52' E 031°04'3 2.6
2016-May-25 08:33S 29°52' E 031°01'2 0.1
2016-May-24 10:19S 29°54' E 031°00'2 2.7
2016-May-24 09:33S 29°52' E 031°01'3 3.2
2016-May-24 08:33S 29°52' E 031°05'4 4.1
2016-May-24 07:33S 29°54' E 031°09'1 1.0
2016-May-24 06:33S 29°53' E 031°09'1 1.1
2016-May-24 05:33S 29°52' E 031°09'  
2016-May-20 10:33S 29°54' E 031°00'5 4.9
2016-May-20 09:33S 29°51' E 031°05'8 8.2
2016-May-20 08:33S 29°46' E 031°13'  
Track history (hours):
 
Tides and Currents Weather Stations Pressure Air Temp Water Temp Dewpoint Dewpoint Depression Visibility Wind Speed Wind Dir Waves Ship Positions

MV Causeway Supplier

Last reported at 2016-May-30 07:34 UTC. Time now 2016-May-30 16:23 UTC.
Position S 29°54' E 031°00'.

Length 22 m; draft 2.7 m.

Type: . MMSI: 601041200.

Date/timePositionNaut miles runAvg speedWind from/ knotsBaromVisibWave heightAir tempDewpointWater temp
2016-May-30 07:34S 29°54' E 031°00'2 2.0
2016-May-30 06:33S 29°52' E 031°01'6 5.6
2016-May-30 05:33S 29°51' E 031°07'3 2.9
2016-May-30 04:33S 29°52' E 031°10'8 7.5
2016-May-30 03:32S 29°52' E 031°02'2 0.1
2016-May-29 07:14S 29°54' E 031°00'1 1.9
2016-May-29 06:33S 29°53' E 031°00'6 5.6
2016-May-29 05:33S 29°52' E 031°07'2 1.7
2016-May-29 04:33S 29°52' E 031°09'3 2.7
2016-May-29 03:33S 29°52' E 031°05'4 4.0
2016-May-29 02:34S 29°52' E 031°01'2 2.0
2016-May-29 01:33S 29°54' E 031°00'0 0.0
2016-May-28 10:10S 29°54' E 031°00'2 3.2
2016-May-28 09:32S 29°52' E 031°01'4 4.0
2016-May-28 08:33S 29°52' E 031°05'6 6.2
2016-May-28 07:33S 29°51' E 031°12'1 0.5
2016-May-28 06:33S 29°52' E 031°13'1 0.9
2016-May-28 05:33S 29°53' E 031°13'8 8.1
2016-May-28 04:33S 29°52' E 031°04'3 2.8
2016-May-28 03:33S 29°52' E 031°01'0 0.0
2016-May-28 02:33S 29°52' E 031°01'0 0.0
2016-May-28 01:33S 29°52' E 031°01'2 2.0
2016-May-28 00:33S 29°54' E 031°00'0 0.0
2016-May-26 19:33S 29°54' E 031°00'4 4.0
2016-May-26 18:34S 29°52' E 031°04'4 4.2
2016-May-26 17:33S 29°52' E 031°09'1 0.8
2016-May-26 16:33S 29°51' E 031°09'0 0.4
2016-May-26 15:33S 29°51' E 031°10'5 5.0
2016-May-26 14:33S 29°52' E 031°04'3 2.6
2016-May-26 13:33S 29°52' E 031°01'1 1.0
2016-May-26 12:33S 29°53' E 031°00'1 1.1
2016-May-26 11:33S 29°54' E 031°00'0 0.0
2016-May-26 10:33S 29°54' E 031°00'0 0.0
2016-May-25 14:03S 29°54' E 031°00'1 1.7
2016-May-25 13:33S 29°53' E 031°00'1 1.3
2016-May-25 12:33S 29°52' E 031°01'7 6.9
2016-May-25 11:33S 29°49' E 031°08'1 0.9
2016-May-25 10:33S 29°50' E 031°08'4 4.4
2016-May-25 09:34S 29°52' E 031°04'3 2.6
2016-May-25 08:33S 29°52' E 031°01'2 0.1
2016-May-24 10:19S 29°54' E 031°00'2 2.7
2016-May-24 09:33S 29°52' E 031°01'3 3.2
2016-May-24 08:33S 29°52' E 031°05'4 4.1
2016-May-24 07:33S 29°54' E 031°09'1 1.0
2016-May-24 06:33S 29°53' E 031°09'1 1.1
2016-May-24 05:33S 29°52' E 031°09'  
2016-May-20 10:33S 29°54' E 031°00'5 4.9
2016-May-20 09:33S 29°51' E 031°05'8 8.2
2016-May-20 08:33S 29°46' E 031°13'  

Dump ship's entire track history